Hauptseite
METAR-TAF:

METAR-TAF

Flughäfen :

Mahajanga, Madagaskar

Breite: 15-40S, Länge: 046-21E, Höhe: 26 m

Beobachtung

Neuester Wetterbericht von vor 38 Minuten, um 07:00 UTC
Wind 14 kt aus Südost, variierte zwischen Ost und Südwest
Temperatur 29°C
Luftfeuchtigkeit 43%
Luftdruck 1020 hPa
Sichtweite 10 km oder mehr
Leicht bewölkt in der Höhe von 2300 ft

METAR: FMNM 130700Z 14014KT 090V220 9999 FEW023 29/15 Q1020 NOSIG

Zeit: 10:38 (07:38 UTC)

Prognose

Neuester Wetterbericht von vor 2 Stunden und 38 Minuten, um 05:00 UTC
Gültige Prognose vom 13 um 06 UTC bis 14 um 06 UTC
Wind 10 kt aus Süd/Südost
Sichtweite 10 km oder mehr
Leicht bewölkt in der Höhe von 2300 ft

TAF: FMNM 130500Z 1306/1406 15010KT 9999 FEW023

Wetterbeobachtungen und Prognosen von mehr als 4000 Flughäfen (METAR und TAF Bericht).

Die verfügbaren Stationen werden durch gelbe und rote Markierungen auf der Karte dargestellt.

Führen Sie die Maus auf sie, um den Namen der Station zu sehen.

Darauf klicken, um die Beobachtung von Wetterbeobachtungen und Prognosen zu sehen.

Um die Karte zu ändern : klicken Sie auf den grünen Tasten mit einem schwarzen Kreuz Zum Vergrößern, auf den grünen Button mit einem Gedankenstrich zu verkleinern, oder auf die grünen Pfeile für benachbarte Karten.


METAR-TAF: